Aérodrome :
LOGIN :

S'inscrire | Disclaimer

   EN    FR    IT 

 










Légende :    VFR   VFR Marginal   IFR   IFR Intensif   IFR Très Intensif
Visi : 
Plafond : 
>= 8 km
>= 3000ft
5 à 8 km
1000 à 3000 ft
1500m à 5 km
500 à 1000 ft
800 à 1500m
200 à 500 ft
< 800m
< 200 ft
Symboles :   Orages  Brouillard  Fortes neiges  Fortes précipitations  Vent > 20 kt
SIGMETs :   Divers  Orages  Givrage  Turbulence  Onde Orograph.  Cendres Volcan.






- Altitude de l'aérodrome : 1084 ft
- Code IATA : EPL


LFSG - Épinal-Mirecourt

DERNIER METAR :
  • 051930Z AUTO 22005KT 190V250 2100 BR OVC002 M02/M02 Q1023

METARs EXPIRÉS :
  • 051900Z AUTO 24007KT 1400 R26/1600D BR OVC002 M02/M02 Q1023
  • 051830Z AUTO 25006KT 1200 R26/1500D BR VV/// M01/M02 Q1023
  • 051800Z AUTO 23005KT 200V260 0900 R26/1100N FZFG VV/// M01/M01 Q1023
  • 051730Z AUTO 20004KT 0700 0650 R26/0700D FZFG VV/// M01/M01 Q1023
  • 051700Z AUTO 26005KT 210V290 0450 R26/0550N FZFG VV/// M01/M01 Q1023

TAF N/A



MET'MAP, la Météo Aéronautique d'un coup d'oeil ! - Copyright ORBIFLY Décembre 2007 - Disclaimer

ORBIFLY MET'MAP TEAM :

Programmation & Développement : Alexandra Zaïnal
Sur une idée originale de : Baudouin d'Aumeries
Assistance à la programmation : Marc-Olivier Méhu
Soutien technique & logistique : Manuel Goepfert

Contact : metmap@orbifly.com




SOURCES & CREDITS :

   NOAA